sensor_id;sensor_type;location;lat;lon;timestamp;P1;durP1;ratioP1;P2;durP2;ratioP2
39294;SDS011;52361;52.100;5.248;2022-10-31T00:00:25;9.5;;;4.3;;
39294;SDS011;52361;52.100;5.248;2022-10-31T00:02:01;9.31;;;3.7;;
39294;SDS011;52361;52.100;5.248;2022-10-31T00:05:13;7.7;;;4.3;;
39294;SDS011;52361;52.100;5.248;2022-10-31T00:06:50;10.3;;;4.8;;
39294;SDS011;52361;52.100;5.248;2022-10-31T00:08:26;10.8;;;4.8;;
39294;SDS011;52361;52.100;5.248;2022-10-31T00:11:42;11.3;;;4.91;;
39294;SDS011;52361;52.100;5.248;2022-10-31T00:13:18;9.31;;;4.5;;
39294;SDS011;52361;52.100;5.248;2022-10-31T00:14:54;7.2;;;4.61;;
39294;SDS011;52361;52.100;5.248;2022-10-31T00:16:30;7.9;;;4.3;;
39294;SDS011;52361;52.100;5.248;2022-10-31T00:19:46;16.5;;;4.91;;
39294;SDS011;52361;52.100;5.248;2022-10-31T00:21:23;16.5;;;4.91;;
39294;SDS011;52361;52.100;5.248;2022-10-31T00:23:00;8.1;;;4.3;;
39294;SDS011;52361;52.100;5.248;2022-10-31T00:26:16;8.2;;;4.0;;
39294;SDS011;52361;52.100;5.248;2022-10-31T00:27:54;13.2;;;4.91;;
39294;SDS011;52361;52.100;5.248;2022-10-31T00:29:31;7.5;;;4.7;;
39294;SDS011;52361;52.100;5.248;2022-10-31T00:31:09;6.2;;;4.0;;
39294;SDS011;52361;52.100;5.248;2022-10-31T00:34:23;9.5;;;4.5;;
39294;SDS011;52361;52.100;5.248;2022-10-31T00:35:59;8.31;;;4.0;;
39294;SDS011;52361;52.100;5.248;2022-10-31T00:37:37;10.21;;;4.41;;
39294;SDS011;52361;52.100;5.248;2022-10-31T00:40:49;12.6;;;5.0;;
39294;SDS011;52361;52.100;5.248;2022-10-31T00:42:26;7.2;;;4.3;;
39294;SDS011;52361;52.100;5.248;2022-10-31T00:44:03;8.31;;;4.41;;
39294;SDS011;52361;52.100;5.248;2022-10-31T00:47:16;12.2;;;4.2;;
39294;SDS011;52361;52.100;5.248;2022-10-31T00:48:53;8.4;;;4.1;;
39294;SDS011;52361;52.100;5.248;2022-10-31T00:50:29;6.0;;;3.9;;
39294;SDS011;52361;52.100;5.248;2022-10-31T00:52:05;9.0;;;4.7;;
39294;SDS011;52361;52.100;5.248;2022-10-31T00:55:17;8.2;;;4.3;;
39294;SDS011;52361;52.100;5.248;2022-10-31T00:56:53;8.5;;;4.0;;
39294;SDS011;52361;52.100;5.248;2022-10-31T00:58:30;7.9;;;4.3;;
39294;SDS011;52361;52.100;5.248;2022-10-31T01:01:44;9.1;;;4.41;;
39294;SDS011;52361;52.100;5.248;2022-10-31T01:03:21;7.7;;;3.9;;
39294;SDS011;52361;52.100;5.248;2022-10-31T01:04:57;8.2;;;5.3;;
39294;SDS011;52361;52.100;5.248;2022-10-31T01:08:10;9.81;;;4.5;;
39294;SDS011;52361;52.100;5.248;2022-10-31T01:09:46;8.5;;;4.7;;
39294;SDS011;52361;52.100;5.248;2022-10-31T01:11:22;9.5;;;5.0;;
39294;SDS011;52361;52.100;5.248;2022-10-31T01:12:59;9.5;;;4.61;;
39294;SDS011;52361;52.100;5.248;2022-10-31T01:16:12;8.9;;;4.3;;
39294;SDS011;52361;52.100;5.248;2022-10-31T01:17:51;7.8;;;4.3;;
39294;SDS011;52361;52.100;5.248;2022-10-31T01:19:27;10.4;;;4.61;;
39294;SDS011;52361;52.100;5.248;2022-10-31T01:22:43;7.4;;;4.3;;
39294;SDS011;52361;52.100;5.248;2022-10-31T01:24:19;8.31;;;4.91;;
39294;SDS011;52361;52.100;5.248;2022-10-31T01:26:00;14.8;;;4.3;;
39294;SDS011;52361;52.100;5.248;2022-10-31T01:27:43;7.1;;;4.3;;
39294;SDS011;52361;52.100;5.248;2022-10-31T01:30:55;8.6;;;4.41;;
39294;SDS011;52361;52.100;5.248;2022-10-31T01:32:35;9.6;;;4.0;;
39294;SDS011;52361;52.100;5.248;2022-10-31T01:34:12;9.0;;;4.5;;
39294;SDS011;52361;52.100;5.248;2022-10-31T01:37:28;7.4;;;4.41;;
39294;SDS011;52361;52.100;5.248;2022-10-31T01:39:07;8.6;;;4.8;;
39294;SDS011;52361;52.100;5.248;2022-10-31T01:40:46;11.4;;;4.91;;
39294;SDS011;52361;52.100;5.248;2022-10-31T01:42:22;6.6;;;4.2;;
39294;SDS011;52361;52.100;5.248;2022-10-31T01:45:38;7.7;;;4.0;;
39294;SDS011;52361;52.100;5.248;2022-10-31T01:47:15;8.5;;;4.61;;
39294;SDS011;52361;52.100;5.248;2022-10-31T01:48:56;8.71;;;5.0;;
39294;SDS011;52361;52.100;5.248;2022-10-31T01:50:35;8.2;;;4.1;;
39294;SDS011;52361;52.100;5.248;2022-10-31T01:54:00;6.6;;;4.3;;
39294;SDS011;52361;52.100;5.248;2022-10-31T01:55:42;7.9;;;4.5;;
39294;SDS011;52361;52.100;5.248;2022-10-31T01:57:21;7.4;;;4.41;;
39294;SDS011;52361;52.100;5.248;2022-10-31T01:58:58;7.0;;;4.3;;
39294;SDS011;52361;52.100;5.248;2022-10-31T02:02:14;8.4;;;4.41;;
39294;SDS011;52361;52.100;5.248;2022-10-31T02:03:54;7.2;;;3.9;;
39294;SDS011;52361;52.100;5.248;2022-10-31T02:05:30;11.4;;;4.3;;
39294;SDS011;52361;52.100;5.248;2022-10-31T02:08:50;9.5;;;4.1;;
39294;SDS011;52361;52.100;5.248;2022-10-31T02:10:27;15.0;;;4.8;;
39294;SDS011;52361;52.100;5.248;2022-10-31T02:12:06;6.1;;;3.4;;
39294;SDS011;52361;52.100;5.248;2022-10-31T02:13:46;7.7;;;3.7;;
39294;SDS011;52361;52.100;5.248;2022-10-31T02:17:00;14.2;;;4.41;;
39294;SDS011;52361;52.100;5.248;2022-10-31T02:18:36;8.5;;;4.2;;
39294;SDS011;52361;52.100;5.248;2022-10-31T02:20:14;8.5;;;4.2;;
39294;SDS011;52361;52.100;5.248;2022-10-31T02:23:50;6.5;;;4.0;;
39294;SDS011;52361;52.100;5.248;2022-10-31T02:26:50;9.9;;;4.91;;
39294;SDS011;52361;52.100;5.248;2022-10-31T02:29:20;13.7;;;3.8;;
39294;SDS011;52361;52.100;5.248;2022-10-31T02:32:12;7.7;;;3.7;;
39294;SDS011;52361;52.100;5.248;2022-10-31T02:33:55;9.9;;;4.61;;
39294;SDS011;52361;52.100;5.248;2022-10-31T02:37:32;10.1;;;4.1;;
39294;SDS011;52361;52.100;5.248;2022-10-31T02:39:22;5.7;;;3.7;;
39294;SDS011;52361;52.100;5.248;2022-10-31T02:41:04;10.7;;;4.5;;
39294;SDS011;52361;52.100;5.248;2022-10-31T02:44:35;4.7;;;3.3;;
39294;SDS011;52361;52.100;5.248;2022-10-31T02:46:19;7.5;;;4.5;;
39294;SDS011;52361;52.100;5.248;2022-10-31T02:48:06;15.5;;;4.0;;
39294;SDS011;52361;52.100;5.248;2022-10-31T02:49:48;6.4;;;3.6;;
39294;SDS011;52361;52.100;5.248;2022-10-31T02:51:32;6.2;;;3.8;;
39294;SDS011;52361;52.100;5.248;2022-10-31T02:54:44;8.1;;;4.3;;
39294;SDS011;52361;52.100;5.248;2022-10-31T02:56:23;11.0;;;4.7;;
39294;SDS011;52361;52.100;5.248;2022-10-31T02:58:00;11.3;;;4.61;;
39294;SDS011;52361;52.100;5.248;2022-10-31T02:59:42;8.31;;;4.41;;
39294;SDS011;52361;52.100;5.248;2022-10-31T03:03:49;8.5;;;3.8;;
39294;SDS011;52361;52.100;5.248;2022-10-31T03:05:40;6.5;;;3.4;;
39294;SDS011;52361;52.100;5.248;2022-10-31T03:07:29;15.1;;;4.5;;
39294;SDS011;52361;52.100;5.248;2022-10-31T03:09:19;12.3;;;3.4;;
39294;SDS011;52361;52.100;5.248;2022-10-31T03:11:01;8.1;;;3.8;;
39294;SDS011;52361;52.100;5.248;2022-10-31T03:12:43;9.9;;;3.9;;
39294;SDS011;52361;52.100;5.248;2022-10-31T03:14:30;7.4;;;3.9;;
39294;SDS011;52361;52.100;5.248;2022-10-31T03:17:57;9.31;;;4.1;;
39294;SDS011;52361;52.100;5.248;2022-10-31T03:19:40;5.2;;;3.4;;
39294;SDS011;52361;52.100;5.248;2022-10-31T03:21:22;6.9;;;3.8;;
39294;SDS011;52361;52.100;5.248;2022-10-31T03:23:04;8.5;;;3.7;;
39294;SDS011;52361;52.100;5.248;2022-10-31T03:24:44;5.2;;;3.1;;
39294;SDS011;52361;52.100;5.248;2022-10-31T03:28:01;8.5;;;4.5;;
39294;SDS011;52361;52.100;5.248;2022-10-31T03:29:42;10.3;;;4.41;;
39294;SDS011;52361;52.100;5.248;2022-10-31T03:31:22;6.4;;;3.8;;
39294;SDS011;52361;52.100;5.248;2022-10-31T03:33:09;5.7;;;3.5;;
39294;SDS011;52361;52.100;5.248;2022-10-31T03:36:32;9.21;;;3.4;;
39294;SDS011;52361;52.100;5.248;2022-10-31T03:38:11;7.0;;;4.61;;
39294;SDS011;52361;52.100;5.248;2022-10-31T03:39:50;5.7;;;4.1;;
39294;SDS011;52361;52.100;5.248;2022-10-31T03:41:28;14.6;;;4.3;;
39294;SDS011;52361;52.100;5.248;2022-10-31T03:44:58;10.4;;;4.7;;
39294;SDS011;52361;52.100;5.248;2022-10-31T03:46:40;6.9;;;3.7;;
39294;SDS011;52361;52.100;5.248;2022-10-31T03:48:18;8.5;;;4.7;;
39294;SDS011;52361;52.100;5.248;2022-10-31T03:49:56;10.7;;;4.91;;
39294;SDS011;52361;52.100;5.248;2022-10-31T03:53:19;7.1;;;4.3;;
39294;SDS011;52361;52.100;5.248;2022-10-31T03:55:03;7.9;;;4.2;;
39294;SDS011;52361;52.100;5.248;2022-10-31T03:56:49;10.6;;;4.8;;
39294;SDS011;52361;52.100;5.248;2022-10-31T03:58:32;9.21;;;4.61;;
39294;SDS011;52361;52.100;5.248;2022-10-31T04:01:51;7.5;;;4.1;;
39294;SDS011;52361;52.100;5.248;2022-10-31T04:03:38;7.2;;;3.5;;
39294;SDS011;52361;52.100;5.248;2022-10-31T04:05:15;8.6;;;4.0;;
39294;SDS011;52361;52.100;5.248;2022-10-31T04:10:16;6.8;;;4.0;;
39294;SDS011;52361;52.100;5.248;2022-10-31T04:11:55;6.8;;;4.5;;
39294;SDS011;52361;52.100;5.248;2022-10-31T04:13:35;6.6;;;4.5;;
39294;SDS011;52361;52.100;5.248;2022-10-31T04:15:15;12.6;;;4.41;;
39294;SDS011;52361;52.100;5.248;2022-10-31T04:18:28;7.4;;;3.7;;
39294;SDS011;52361;52.100;5.248;2022-10-31T04:20:05;10.6;;;4.61;;
39294;SDS011;52361;52.100;5.248;2022-10-31T04:21:43;10.6;;;5.6;;
39294;SDS011;52361;52.100;5.248;2022-10-31T04:23:20;6.8;;;4.1;;
39294;SDS011;52361;52.100;5.248;2022-10-31T04:26:36;6.9;;;3.8;;
39294;SDS011;52361;52.100;5.248;2022-10-31T04:28:13;8.9;;;4.41;;
39294;SDS011;52361;52.100;5.248;2022-10-31T04:29:49;10.6;;;5.4;;
39294;SDS011;52361;52.100;5.248;2022-10-31T04:33:01;7.5;;;4.61;;
39294;SDS011;52361;52.100;5.248;2022-10-31T04:36:14;11.5;;;4.5;;
39294;SDS011;52361;52.100;5.248;2022-10-31T04:39:26;7.3;;;4.0;;
39294;SDS011;52361;52.100;5.248;2022-10-31T04:42:38;7.9;;;5.11;;
39294;SDS011;52361;52.100;5.248;2022-10-31T04:44:14;7.0;;;4.1;;
39294;SDS011;52361;52.100;5.248;2022-10-31T04:47:27;8.31;;;4.5;;
39294;SDS011;52361;52.100;5.248;2022-10-31T04:49:03;11.2;;;4.8;;
39294;SDS011;52361;52.100;5.248;2022-10-31T04:50:39;8.2;;;4.5;;
39294;SDS011;52361;52.100;5.248;2022-10-31T04:53:52;17.8;;;5.0;;
39294;SDS011;52361;52.100;5.248;2022-10-31T04:55:29;9.5;;;4.0;;
39294;SDS011;52361;52.100;5.248;2022-10-31T05:00:19;6.8;;;4.3;;
39294;SDS011;52361;52.100;5.248;2022-10-31T05:01:57;9.1;;;4.8;;
39294;SDS011;52361;52.100;5.248;2022-10-31T05:03:33;7.9;;;3.5;;
39294;SDS011;52361;52.100;5.248;2022-10-31T05:05:10;8.6;;;4.61;;
39294;SDS011;52361;52.100;5.248;2022-10-31T05:08:22;9.21;;;4.41;;
39294;SDS011;52361;52.100;5.248;2022-10-31T05:09:58;9.6;;;4.91;;
39294;SDS011;52361;52.100;5.248;2022-10-31T05:11:34;9.6;;;5.11;;
39294;SDS011;52361;52.100;5.248;2022-10-31T05:14:46;6.8;;;4.5;;
39294;SDS011;52361;52.100;5.248;2022-10-31T05:16:23;7.5;;;3.5;;
39294;SDS011;52361;52.100;5.248;2022-10-31T05:21:12;9.0;;;4.0;;
39294;SDS011;52361;52.100;5.248;2022-10-31T05:22:49;8.6;;;4.2;;
39294;SDS011;52361;52.100;5.248;2022-10-31T05:24:26;7.6;;;4.91;;
39294;SDS011;52361;52.100;5.248;2022-10-31T05:26:03;12.0;;;4.5;;
39294;SDS011;52361;52.100;5.248;2022-10-31T05:29:17;6.3;;;4.2;;
39294;SDS011;52361;52.100;5.248;2022-10-31T05:30:53;7.8;;;4.5;;
39294;SDS011;52361;52.100;5.248;2022-10-31T05:32:35;11.0;;;5.5;;
39294;SDS011;52361;52.100;5.248;2022-10-31T05:35:48;9.9;;;5.4;;
39294;SDS011;52361;52.100;5.248;2022-10-31T05:37:25;8.9;;;5.3;;
39294;SDS011;52361;52.100;5.248;2022-10-31T05:39:01;8.1;;;3.9;;
39294;SDS011;52361;52.100;5.248;2022-10-31T05:42:14;12.0;;;5.2;;
39294;SDS011;52361;52.100;5.248;2022-10-31T05:43:51;9.31;;;4.5;;
39294;SDS011;52361;52.100;5.248;2022-10-31T05:45:28;10.8;;;5.6;;
39294;SDS011;52361;52.100;5.248;2022-10-31T05:50:17;9.21;;;5.7;;
39294;SDS011;52361;52.100;5.248;2022-10-31T05:51:54;9.4;;;4.61;;
39294;SDS011;52361;52.100;5.248;2022-10-31T05:53:30;7.9;;;4.8;;
39294;SDS011;52361;52.100;5.248;2022-10-31T05:56:44;11.2;;;5.5;;
39294;SDS011;52361;52.100;5.248;2022-10-31T05:58:20;8.1;;;5.0;;
39294;SDS011;52361;52.100;5.248;2022-10-31T05:59:56;10.5;;;5.11;;
39294;SDS011;52361;52.100;5.248;2022-10-31T06:04:45;11.0;;;4.8;;
39294;SDS011;52361;52.100;5.248;2022-10-31T06:06:22;8.4;;;4.8;;
39294;SDS011;52361;52.100;5.248;2022-10-31T06:07:58;16.61;;;6.9;;
39294;SDS011;52361;52.100;5.248;2022-10-31T06:11:10;9.81;;;5.2;;
39294;SDS011;52361;52.100;5.248;2022-10-31T06:12:46;9.21;;;5.11;;
39294;SDS011;52361;52.100;5.248;2022-10-31T06:14:23;10.9;;;6.7;;
39294;SDS011;52361;52.100;5.248;2022-10-31T06:17:36;12.0;;;6.6;;
39294;SDS011;52361;52.100;5.248;2022-10-31T06:20:48;14.6;;;7.2;;
39294;SDS011;52361;52.100;5.248;2022-10-31T06:24:02;20.5;;;8.81;;
39294;SDS011;52361;52.100;5.248;2022-10-31T06:25:38;18.7;;;8.1;;
39294;SDS011;52361;52.100;5.248;2022-10-31T06:27:15;16.9;;;8.1;;
39294;SDS011;52361;52.100;5.248;2022-10-31T06:28:51;20.7;;;8.71;;
39294;SDS011;52361;52.100;5.248;2022-10-31T06:32:03;19.8;;;7.7;;
39294;SDS011;52361;52.100;5.248;2022-10-31T06:33:40;13.1;;;8.1;;
39294;SDS011;52361;52.100;5.248;2022-10-31T06:35:17;15.7;;;9.31;;
39294;SDS011;52361;52.100;5.248;2022-10-31T06:38:29;19.7;;;9.31;;
39294;SDS011;52361;52.100;5.248;2022-10-31T06:40:05;21.6;;;9.1;;
39294;SDS011;52361;52.100;5.248;2022-10-31T06:41:42;18.61;;;10.1;;
39294;SDS011;52361;52.100;5.248;2022-10-31T06:44:55;20.11;;;8.71;;
39294;SDS011;52361;52.100;5.248;2022-10-31T06:46:32;23.5;;;9.21;;
39294;SDS011;52361;52.100;5.248;2022-10-31T06:48:08;15.9;;;7.8;;
39294;SDS011;52361;52.100;5.248;2022-10-31T06:49:44;16.2;;;8.2;;
39294;SDS011;52361;52.100;5.248;2022-10-31T06:52:57;19.2;;;8.71;;
39294;SDS011;52361;52.100;5.248;2022-10-31T06:54:34;18.0;;;8.4;;
39294;SDS011;52361;52.100;5.248;2022-10-31T06:56:10;13.8;;;8.9;;
39294;SDS011;52361;52.100;5.248;2022-10-31T06:59:26;19.91;;;8.4;;
39294;SDS011;52361;52.100;5.248;2022-10-31T07:01:02;18.3;;;10.3;;
39294;SDS011;52361;52.100;5.248;2022-10-31T07:02:38;17.5;;;8.4;;
39294;SDS011;52361;52.100;5.248;2022-10-31T07:05:50;19.91;;;8.9;;
39294;SDS011;52361;52.100;5.248;2022-10-31T07:07:27;25.7;;;10.1;;
39294;SDS011;52361;52.100;5.248;2022-10-31T07:09:03;21.4;;;9.6;;
39294;SDS011;52361;52.100;5.248;2022-10-31T07:10:41;17.41;;;9.5;;
39294;SDS011;52361;52.100;5.248;2022-10-31T07:13:54;13.0;;;7.3;;
39294;SDS011;52361;52.100;5.248;2022-10-31T07:15:33;18.11;;;8.0;;
39294;SDS011;52361;52.100;5.248;2022-10-31T07:17:13;20.3;;;9.21;;
39294;SDS011;52361;52.100;5.248;2022-10-31T07:20:27;14.4;;;7.7;;
39294;SDS011;52361;52.100;5.248;2022-10-31T07:22:03;14.4;;;8.0;;
39294;SDS011;52361;52.100;5.248;2022-10-31T07:23:39;14.9;;;7.6;;
39294;SDS011;52361;52.100;5.248;2022-10-31T07:25:15;13.4;;;8.5;;
39294;SDS011;52361;52.100;5.248;2022-10-31T07:28:28;15.0;;;7.2;;
39294;SDS011;52361;52.100;5.248;2022-10-31T07:30:04;17.0;;;9.9;;
39294;SDS011;52361;52.100;5.248;2022-10-31T07:31:48;13.8;;;8.4;;
39294;SDS011;52361;52.100;5.248;2022-10-31T07:35:02;14.6;;;8.6;;
39294;SDS011;52361;52.100;5.248;2022-10-31T07:36:38;17.0;;;8.2;;
39294;SDS011;52361;52.100;5.248;2022-10-31T07:38:15;16.11;;;8.31;;
39294;SDS011;52361;52.100;5.248;2022-10-31T07:41:27;15.1;;;8.5;;
39294;SDS011;52361;52.100;5.248;2022-10-31T07:44:41;18.91;;;8.31;;
39294;SDS011;52361;52.100;5.248;2022-10-31T07:46:17;14.0;;;7.7;;
39294;SDS011;52361;52.100;5.248;2022-10-31T07:49:30;12.4;;;7.0;;
39294;SDS011;52361;52.100;5.248;2022-10-31T07:51:06;18.7;;;9.6;;
39294;SDS011;52361;52.100;5.248;2022-10-31T07:52:43;17.3;;;8.5;;
39294;SDS011;52361;52.100;5.248;2022-10-31T07:55:56;14.9;;;8.5;;
39294;SDS011;52361;52.100;5.248;2022-10-31T07:57:32;15.7;;;7.8;;
39294;SDS011;52361;52.100;5.248;2022-10-31T07:59:08;13.7;;;8.4;;
39294;SDS011;52361;52.100;5.248;2022-10-31T08:03:59;20.0;;;8.1;;
39294;SDS011;52361;52.100;5.248;2022-10-31T08:05:36;15.5;;;9.1;;
39294;SDS011;52361;52.100;5.248;2022-10-31T08:07:13;14.4;;;7.6;;
39294;SDS011;52361;52.100;5.248;2022-10-31T08:10:25;19.5;;;9.21;;
39294;SDS011;52361;52.100;5.248;2022-10-31T08:12:03;17.2;;;9.0;;
39294;SDS011;52361;52.100;5.248;2022-10-31T08:13:40;24.5;;;9.21;;
39294;SDS011;52361;52.100;5.248;2022-10-31T08:16:52;16.8;;;8.5;;
39294;SDS011;52361;52.100;5.248;2022-10-31T08:18:29;20.7;;;8.0;;
39294;SDS011;52361;52.100;5.248;2022-10-31T08:20:06;16.8;;;8.9;;
39294;SDS011;52361;52.100;5.248;2022-10-31T08:23:19;19.41;;;9.6;;
39294;SDS011;52361;52.100;5.248;2022-10-31T08:24:55;18.5;;;9.0;;
39294;SDS011;52361;52.100;5.248;2022-10-31T08:26:32;22.5;;;9.31;;
39294;SDS011;52361;52.100;5.248;2022-10-31T08:28:10;17.41;;;9.71;;
39294;SDS011;52361;52.100;5.248;2022-10-31T08:31:25;19.61;;;10.1;;
39294;SDS011;52361;52.100;5.248;2022-10-31T08:33:03;22.8;;;11.1;;
39294;SDS011;52361;52.100;5.248;2022-10-31T08:34:41;19.91;;;11.7;;
39294;SDS011;52361;52.100;5.248;2022-10-31T08:37:54;24.8;;;11.2;;
39294;SDS011;52361;52.100;5.248;2022-10-31T08:39:31;22.0;;;11.1;;
39294;SDS011;52361;52.100;5.248;2022-10-31T08:41:07;22.0;;;10.21;;
39294;SDS011;52361;52.100;5.248;2022-10-31T08:42:43;22.7;;;10.0;;
39294;SDS011;52361;52.100;5.248;2022-10-31T08:45:57;31.4;;;12.7;;
39294;SDS011;52361;52.100;5.248;2022-10-31T08:47:33;25.2;;;11.9;;
39294;SDS011;52361;52.100;5.248;2022-10-31T08:49:09;27.5;;;11.4;;
39294;SDS011;52361;52.100;5.248;2022-10-31T08:52:23;23.9;;;11.4;;
39294;SDS011;52361;52.100;5.248;2022-10-31T08:53:59;20.5;;;10.9;;
39294;SDS011;52361;52.100;5.248;2022-10-31T08:55:36;20.5;;;10.9;;
39294;SDS011;52361;52.100;5.248;2022-10-31T08:58:52;20.41;;;11.2;;
39294;SDS011;52361;52.100;5.248;2022-10-31T09:00:28;21.6;;;11.0;;
39294;SDS011;52361;52.100;5.248;2022-10-31T09:02:04;25.0;;;11.8;;
39294;SDS011;52361;52.100;5.248;2022-10-31T09:03:40;27.6;;;11.9;;
39294;SDS011;52361;52.100;5.248;2022-10-31T09:06:53;22.7;;;11.2;;
39294;SDS011;52361;52.100;5.248;2022-10-31T09:08:29;22.2;;;10.3;;
39294;SDS011;52361;52.100;5.248;2022-10-31T09:10:07;22.2;;;10.6;;
39294;SDS011;52361;52.100;5.248;2022-10-31T09:13:20;22.4;;;11.1;;
39294;SDS011;52361;52.100;5.248;2022-10-31T09:14:57;23.5;;;11.5;;
39294;SDS011;52361;52.100;5.248;2022-10-31T09:16:33;22.8;;;11.7;;
39294;SDS011;52361;52.100;5.248;2022-10-31T09:19:46;25.5;;;11.0;;
39294;SDS011;52361;52.100;5.248;2022-10-31T09:21:22;22.7;;;11.0;;
39294;SDS011;52361;52.100;5.248;2022-10-31T09:22:59;24.7;;;11.5;;
39294;SDS011;52361;52.100;5.248;2022-10-31T09:27:50;31.2;;;11.5;;
39294;SDS011;52361;52.100;5.248;2022-10-31T09:29:26;20.3;;;11.1;;
39294;SDS011;52361;52.100;5.248;2022-10-31T09:31:02;18.7;;;9.81;;
39294;SDS011;52361;52.100;5.248;2022-10-31T09:34:14;18.2;;;9.4;;
39294;SDS011;52361;52.100;5.248;2022-10-31T09:35:51;21.2;;;10.6;;
39294;SDS011;52361;52.100;5.248;2022-10-31T09:37:27;20.11;;;9.9;;
39294;SDS011;52361;52.100;5.248;2022-10-31T09:40:40;20.3;;;10.3;;
39294;SDS011;52361;52.100;5.248;2022-10-31T09:44:26;17.7;;;9.31;;
39294;SDS011;52361;52.100;5.248;2022-10-31T09:46:14;25.1;;;10.9;;
39294;SDS011;52361;52.100;5.248;2022-10-31T09:48:04;19.41;;;8.9;;
39294;SDS011;52361;52.100;5.248;2022-10-31T09:50:14;24.3;;;10.0;;
39294;SDS011;52361;52.100;5.248;2022-10-31T09:51:59;16.4;;;9.81;;
39294;SDS011;52361;52.100;5.248;2022-10-31T09:57:17;21.5;;;9.81;;
39294;SDS011;52361;52.100;5.248;2022-10-31T09:59:01;19.91;;;9.5;;
39294;SDS011;52361;52.100;5.248;2022-10-31T10:00:40;19.41;;;8.4;;
39294;SDS011;52361;52.100;5.248;2022-10-31T10:02:18;14.8;;;8.1;;
39294;SDS011;52361;52.100;5.248;2022-10-31T10:05:51;14.6;;;8.2;;
39294;SDS011;52361;52.100;5.248;2022-10-31T10:07:37;15.8;;;8.81;;
39294;SDS011;52361;52.100;5.248;2022-10-31T10:09:20;14.6;;;7.5;;
39294;SDS011;52361;52.100;5.248;2022-10-31T10:11:06;17.3;;;7.8;;
39294;SDS011;52361;52.100;5.248;2022-10-31T10:13:05;15.1;;;7.1;;
39294;SDS011;52361;52.100;5.248;2022-10-31T10:15:16;14.5;;;7.0;;
39294;SDS011;52361;52.100;5.248;2022-10-31T10:18:05;15.3;;;7.7;;
39294;SDS011;52361;52.100;5.248;2022-10-31T10:20:00;13.0;;;7.0;;
39294;SDS011;52361;52.100;5.248;2022-10-31T10:21:51;9.9;;;5.8;;
39294;SDS011;52361;52.100;5.248;2022-10-31T10:23:44;13.3;;;6.7;;
39294;SDS011;52361;52.100;5.248;2022-10-31T10:25:33;9.6;;;5.3;;
39294;SDS011;52361;52.100;5.248;2022-10-31T10:29:00;10.4;;;5.6;;
39294;SDS011;52361;52.100;5.248;2022-10-31T10:30:54;12.3;;;6.0;;
39294;SDS011;52361;52.100;5.248;2022-10-31T10:32:37;10.21;;;5.0;;
39294;SDS011;52361;52.100;5.248;2022-10-31T10:34:19;9.6;;;5.11;;
39294;SDS011;52361;52.100;5.248;2022-10-31T10:36:03;8.71;;;5.11;;
39294;SDS011;52361;52.100;5.248;2022-10-31T10:37:44;7.8;;;5.4;;
39294;SDS011;52361;52.100;5.248;2022-10-31T10:41:10;11.7;;;6.1;;
39294;SDS011;52361;52.100;5.248;2022-10-31T10:43:26;9.31;;;5.4;;
39294;SDS011;52361;52.100;5.248;2022-10-31T10:48:02;10.21;;;5.6;;
39294;SDS011;52361;52.100;5.248;2022-10-31T10:49:44;12.4;;;6.3;;
39294;SDS011;52361;52.100;5.248;2022-10-31T10:51:27;10.4;;;6.2;;
39294;SDS011;52361;52.100;5.248;2022-10-31T10:53:25;8.31;;;5.0;;
39294;SDS011;52361;52.100;5.248;2022-10-31T10:55:15;12.0;;;5.9;;
39294;SDS011;52361;52.100;5.248;2022-10-31T10:57:03;11.8;;;5.5;;
39294;SDS011;52361;52.100;5.248;2022-10-31T10:58:50;9.6;;;5.0;;
39294;SDS011;52361;52.100;5.248;2022-10-31T11:02:16;10.4;;;5.8;;
39294;SDS011;52361;52.100;5.248;2022-10-31T11:03:59;9.5;;;4.61;;
39294;SDS011;52361;52.100;5.248;2022-10-31T11:05:39;9.0;;;4.8;;
39294;SDS011;52361;52.100;5.248;2022-10-31T11:07:22;13.4;;;6.4;;
39294;SDS011;52361;52.100;5.248;2022-10-31T11:10:45;9.6;;;5.2;;
39294;SDS011;52361;52.100;5.248;2022-10-31T11:12:33;13.7;;;5.5;;
39294;SDS011;52361;52.100;5.248;2022-10-31T11:14:11;9.0;;;5.3;;
39294;SDS011;52361;52.100;5.248;2022-10-31T11:15:51;17.61;;;5.5;;
39294;SDS011;52361;52.100;5.248;2022-10-31T11:17:36;12.7;;;5.5;;
39294;SDS011;52361;52.100;5.248;2022-10-31T11:21:03;10.1;;;5.6;;
39294;SDS011;52361;52.100;5.248;2022-10-31T11:22:41;14.4;;;6.0;;
39294;SDS011;52361;52.100;5.248;2022-10-31T11:24:20;13.6;;;5.3;;
39294;SDS011;52361;52.100;5.248;2022-10-31T11:25:58;17.91;;;6.5;;
39294;SDS011;52361;52.100;5.248;2022-10-31T11:29:13;18.5;;;6.1;;
39294;SDS011;52361;52.100;5.248;2022-10-31T11:30:52;19.0;;;7.5;;
39294;SDS011;52361;52.100;5.248;2022-10-31T11:32:33;22.0;;;7.3;;
39294;SDS011;52361;52.100;5.248;2022-10-31T11:35:54;12.3;;;6.4;;
39294;SDS011;52361;52.100;5.248;2022-10-31T11:39:15;14.8;;;6.7;;
39294;SDS011;52361;52.100;5.248;2022-10-31T11:40:57;16.61;;;7.7;;
39294;SDS011;52361;52.100;5.248;2022-10-31T11:42:38;13.4;;;6.8;;
39294;SDS011;52361;52.100;5.248;2022-10-31T11:45:58;17.11;;;7.0;;
39294;SDS011;52361;52.100;5.248;2022-10-31T11:47:36;22.3;;;7.4;;
39294;SDS011;52361;52.100;5.248;2022-10-31T11:49:15;11.8;;;6.5;;
39294;SDS011;52361;52.100;5.248;2022-10-31T11:52:33;17.91;;;8.1;;
39294;SDS011;52361;52.100;5.248;2022-10-31T11:54:15;17.41;;;7.0;;
39294;SDS011;52361;52.100;5.248;2022-10-31T11:56:03;23.7;;;9.0;;
39294;SDS011;52361;52.100;5.248;2022-10-31T11:57:47;16.8;;;8.2;;
39294;SDS011;52361;52.100;5.248;2022-10-31T11:59:26;21.1;;;8.81;;
39294;SDS011;52361;52.100;5.248;2022-10-31T12:02:42;21.2;;;8.2;;
39294;SDS011;52361;52.100;5.248;2022-10-31T12:04:18;18.91;;;8.1;;
39294;SDS011;52361;52.100;5.248;2022-10-31T12:06:05;14.1;;;7.5;;
39294;SDS011;52361;52.100;5.248;2022-10-31T12:07:46;16.7;;;8.71;;
39294;SDS011;52361;52.100;5.248;2022-10-31T12:11:06;19.5;;;9.0;;
39294;SDS011;52361;52.100;5.248;2022-10-31T12:13:08;18.7;;;8.6;;
39294;SDS011;52361;52.100;5.248;2022-10-31T12:15:38;17.8;;;6.5;;
39294;SDS011;52361;52.100;5.248;2022-10-31T12:17:25;22.2;;;8.5;;
39294;SDS011;52361;52.100;5.248;2022-10-31T12:19:13;15.1;;;7.8;;
39294;SDS011;52361;52.100;5.248;2022-10-31T12:21:04;17.61;;;7.7;;
39294;SDS011;52361;52.100;5.248;2022-10-31T12:22:55;17.61;;;7.7;;
39294;SDS011;52361;52.100;5.248;2022-10-31T12:24:50;19.41;;;8.81;;
39294;SDS011;52361;52.100;5.248;2022-10-31T12:30:21;20.8;;;8.31;;
39294;SDS011;52361;52.100;5.248;2022-10-31T12:32:10;20.41;;;7.2;;
39294;SDS011;52361;52.100;5.248;2022-10-31T12:34:05;14.0;;;7.2;;
39294;SDS011;52361;52.100;5.248;2022-10-31T12:36:10;18.2;;;9.31;;
39294;SDS011;52361;52.100;5.248;2022-10-31T12:38:04;22.4;;;9.21;;
39294;SDS011;52361;52.100;5.248;2022-10-31T12:40:28;18.2;;;8.31;;
39294;SDS011;52361;52.100;5.248;2022-10-31T12:42:21;17.7;;;8.1;;
39294;SDS011;52361;52.100;5.248;2022-10-31T12:44:20;19.11;;;9.71;;
39294;SDS011;52361;52.100;5.248;2022-10-31T12:46:20;14.9;;;8.1;;
39294;SDS011;52361;52.100;5.248;2022-10-31T12:48:10;17.61;;;7.8;;
39294;SDS011;52361;52.100;5.248;2022-10-31T12:50:02;21.7;;;8.31;;
39294;SDS011;52361;52.100;5.248;2022-10-31T12:51:59;16.61;;;7.7;;
39294;SDS011;52361;52.100;5.248;2022-10-31T12:53:55;18.41;;;8.0;;
39294;SDS011;52361;52.100;5.248;2022-10-31T12:55:51;20.5;;;8.31;;
39294;SDS011;52361;52.100;5.248;2022-10-31T12:59:23;20.0;;;7.9;;
39294;SDS011;52361;52.100;5.248;2022-10-31T13:01:07;18.41;;;9.31;;
39294;SDS011;52361;52.100;5.248;2022-10-31T13:02:50;22.2;;;8.4;;
39294;SDS011;52361;52.100;5.248;2022-10-31T13:04:34;17.91;;;8.31;;
39294;SDS011;52361;52.100;5.248;2022-10-31T13:06:19;22.6;;;8.81;;
39294;SDS011;52361;52.100;5.248;2022-10-31T13:09:43;20.5;;;8.81;;
39294;SDS011;52361;52.100;5.248;2022-10-31T13:11:32;29.6;;;9.31;;
39294;SDS011;52361;52.100;5.248;2022-10-31T13:13:21;21.0;;;8.1;;
39294;SDS011;52361;52.100;5.248;2022-10-31T13:15:03;18.2;;;8.4;;
39294;SDS011;52361;52.100;5.248;2022-10-31T13:21:57;21.2;;;8.31;;
39294;SDS011;52361;52.100;5.248;2022-10-31T13:23:41;21.2;;;8.31;;
39294;SDS011;52361;52.100;5.248;2022-10-31T13:25:21;20.8;;;9.4;;
39294;SDS011;52361;52.100;5.248;2022-10-31T13:28:47;23.8;;;8.81;;